Portada
METAR-TAF:

METAR-TAF

Aeroports :

Laoag, Filipines

latitud: 18-11N, longitud: 120-32E, altitud: 4 m

Observació

L'informe es va fer fa 21 minuts, a les 23:00 UTC
Vent 4 kt del Est
Temperatura 28°C
Humitat 84%
Pressió 1014 hPa
Visibilitat: 8000 m
Escasses núvols a una alçada de 1800 ft

METAR: RPLI 292300Z 09004KT 8000 FEW018 28/25 Q1014 NOSIG RMK A2994

Hora: 07:21 (23:21 UTC)

Pronòstic

L'informe es va fer fa 6 hores i 21 minuts, a les 17:00 UTC
Pronòstic vàlid del 29 a les 18 UTC al 30 a les 18 UTC
Vent 7 kt del Nord-Oest
Visibilitat 10 km o més
Escasses núvols a una alçada de 1800 ft
Núvols disperses a una alçada de 29000 ft
Temporalment
l' 29 a les 18 UTC al 29 a les 24 UTC
Vent 4 kt del Est/Sud-Est
Escasses núvols a una alçada de 1700 ft, Cumulonimbus.
Escasses núvols a una alçada de 1800 ft
Cel ennuvolat a una alçada de 9000 ft

TAF: RPLI 291700Z 2918/3018 32007KT 9999 FEW018 SCT290 TEMPO 2918/2924 12004KT FEW017CB FEW018 BKN090

Observacions i pronòstics meteorològics de més de 4000 aeroports (METAR i TAF).

Les estacions disponibles són els punts grocs i vermells al mapa.

Posi el ratolí al punt desitjat per veure el nom de l'estació.

Feu clic per veure les observacions i els pronòstics meteorològics.

Per canviar el mapa: feu clic els botons verds amb una creu de color negre per apropar; al botó verd amb un guió per allunyar la imatge; o en les fletxes verdes per a mapes adjacents.


METAR-TAF: